Time;durP1;ratioP1;P1;durP2;ratioP2;P2;SDS_P1;SDS_P2;PMS_P1;PMS_P2;Temp;Humidity;BMP_temperature;BMP_pressure;BME280_temperature;BME280_humidity;BME280_pressure;Samples;Min_cycle;Max_cycle;Signal;HPM_P1;HPM_P2
2023/07/05 00:00:10;;;;;;;2.70;1.65;;;;;;;27.61;35.35;100413.38;5059767;27;96600;-78
2023/07/05 00:02:36;;;;;;;1.90;1.70;;;;;;;27.62;35.27;100406.78;5058014;27;96990;-78
2023/07/05 00:05:03;;;;;;;2.25;1.80;;;;;;;27.62;35.04;100403.19;5055966;27;96872;-78
2023/07/05 00:07:30;;;;;;;2.08;1.58;;;;;;;27.60;35.32;100386.84;5037203;27;96497;-78
2023/07/05 00:09:57;;;;;;;2.45;1.70;;;;;;;27.61;35.43;100390.47;5052568;27;96683;-78
2023/07/05 00:12:23;;;;;;;2.75;2.00;;;;;;;27.61;35.30;100387.72;5023120;27;99845;-78
2023/07/05 00:14:50;;;;;;;2.13;1.85;;;;;;;27.61;35.49;100379.44;5052854;27;96660;-78
2023/07/05 00:17:16;;;;;;;1.70;1.48;;;;;;;27.61;35.26;100385.78;5052159;27;97250;-78
2023/07/05 00:19:48;;;;;;;3.35;1.80;;;;;;;27.60;35.38;100370.28;5050552;27;96908;-78
2023/07/05 00:22:15;;;;;;;1.75;1.52;;;;;;;27.60;35.51;100367.53;5055082;27;97036;-78
2023/07/05 00:24:41;;;;;;;1.88;1.45;;;;;;;27.60;35.52;100356.50;5033363;27;98388;-78
2023/07/05 00:27:08;;;;;;;1.95;1.60;;;;;;;27.60;35.26;100339.94;5053916;27;96708;-78
2023/07/05 00:29:34;;;;;;;2.17;1.73;;;;;;;27.60;35.43;100334.41;5051263;27;96782;-78
2023/07/05 00:32:01;;;;;;;2.63;1.73;;;;;;;27.60;35.54;100328.06;5033640;27;98627;-78
2023/07/05 00:34:29;;;;;;;2.40;1.88;;;;;;;27.60;35.54;100326.16;5033500;27;98736;-78
2023/07/05 00:36:55;;;;;;;2.13;1.73;;;;;;;27.59;35.30;100323.63;5054408;27;96786;-78
2023/07/05 00:39:22;;;;;;;2.15;1.70;;;;;;;27.60;35.13;100326.16;5051853;27;97308;-78
2023/07/05 00:41:50;;;;;;;2.22;1.70;;;;;;;27.60;35.30;100312.34;5057294;27;98051;-78
2023/07/05 00:44:17;;;;;;;2.17;1.75;;;;;;;27.59;35.26;100283.09;5040351;27;99723;-78
2023/07/05 00:46:48;;;;;;;2.58;2.00;;;;;;;27.59;35.43;100274.81;5071480;27;96890;-78
2023/07/05 00:49:20;;;;;;;1.90;1.70;;;;;;;27.59;35.47;100266.53;5037669;27;96732;-78
2023/07/05 00:52:09;;;;;;;2.20;1.55;;;;;;;27.60;35.32;100259.09;5056005;27;100337;-78
2023/07/05 00:54:44;;;;;;;2.15;1.90;;;;;;;27.57;35.36;100252.13;5045285;27;96877;-78
2023/07/05 00:57:31;;;;;;;2.08;1.70;;;;;;;27.57;35.33;100249.38;5055916;27;96703;-78
2023/07/05 01:00:07;;;;;;;1.98;1.60;;;;;;;27.57;35.42;100220.94;5044331;27;96945;-78
2023/07/05 01:02:39;;;;;;;2.40;1.67;;;;;;;27.57;35.34;100212.66;5052470;27;96719;-78
2023/07/05 01:05:08;;;;;;;1.83;1.60;;;;;;;27.56;35.33;100203.56;5055929;27;97152;-78
2023/07/05 01:07:36;;;;;;;2.03;1.70;;;;;;;27.57;35.31;100219.03;5055624;27;97014;-78
2023/07/05 01:10:02;;;;;;;1.88;1.35;;;;;;;27.57;35.53;100223.72;5056549;27;97068;-78
2023/07/05 01:13:00;;;;;;;2.00;1.80;;;;;;;27.58;35.44;100220.72;5054323;27;99568;-78
2023/07/05 01:15:39;;;;;;;1.67;1.42;;;;;;;27.56;35.72;100217.34;5050394;27;97038;-78
2023/07/05 01:18:29;;;;;;;2.00;1.50;;;;;;;27.56;35.42;100211.84;5042725;27;96669;-78
2023/07/05 01:21:14;;;;;;;3.13;1.65;;;;;;;27.55;35.57;100204.63;5054144;27;96697;-78
2023/07/05 01:23:59;;;;;;;;;;;;;;;27.50;35.30;100207.25;5054395;27;97853;-78
2023/07/05 01:26:38;;;;;;;2.17;1.60;;;;;;;27.48;35.44;100199.19;5056357;27;96999;-78
2023/07/05 01:29:32;;;;;;;2.03;1.73;;;;;;;27.51;35.58;100193.22;5052752;27;96678;-78
2023/07/05 01:32:04;;;;;;;1.85;1.45;;;;;;;27.50;35.63;100208.09;5053185;27;97178;-78
2023/07/05 01:34:42;;;;;;;2.03;1.63;;;;;;;27.51;35.67;100209.78;5053280;27;98824;-78
2023/07/05 01:37:23;;;;;;;1.90;1.40;;;;;;;27.52;35.40;100202.34;5045150;27;99826;-78
2023/07/05 01:39:50;;;;;;;1.65;1.55;;;;;;;27.52;35.62;100194.06;5050831;27;96834;-78
2023/07/05 01:42:20;;;;;;;2.60;2.00;;;;;;;27.52;35.52;100197.66;5053334;27;96839;-78
2023/07/05 01:44:46;;;;;;;1.98;1.50;;;;;;;27.53;35.62;100191.06;5036982;27;98568;-78
2023/07/05 01:47:23;;;;;;;1.67;1.48;;;;;;;27.54;35.56;100191.91;5036824;27;99754;-78
2023/07/05 01:50:03;;;;;;;2.05;1.50;;;;;;;27.55;35.57;100193.59;5054054;27;96969;-78
2023/07/05 01:52:45;;;;;;;2.88;1.52;;;;;;;27.54;35.65;100183.66;5052931;27;96708;-78
2023/07/05 01:55:25;;;;;;;2.40;1.80;;;;;;;27.53;35.65;100185.56;5042649;27;98078;-78
2023/07/05 01:58:00;;;;;;;1.98;1.58;;;;;;;27.53;35.58;100184.72;5054433;27;97823;-78
2023/07/05 02:00:30;;;;;;;2.28;1.80;;;;;;;27.53;35.77;100184.72;5051335;27;96737;-78
2023/07/05 02:03:01;;;;;;;1.52;1.40;;;;;;;27.53;35.78;100176.44;5053293;27;97648;-78
2023/07/05 02:05:32;;;;;;;2.33;1.77;;;;;;;27.52;35.74;100175.59;5034436;27;96845;-78
2023/07/05 02:07:59;;;;;;;2.30;1.80;;;;;;;27.53;35.69;100176.44;5049697;27;99040;-78
2023/07/05 02:10:27;;;;;;;1.52;1.42;;;;;;;27.53;35.66;100170.94;5052131;27;96754;-78
2023/07/05 02:12:56;;;;;;;2.67;1.60;;;;;;;27.53;35.58;100174.53;5034192;27;97297;-78
2023/07/05 02:15:23;;;;;;;1.80;1.30;;;;;;;27.54;35.66;100184.47;5048679;27;98252;-78
2023/07/05 02:17:50;;;;;;;1.90;1.58;;;;;;;27.53;35.71;100193.84;5051655;27;96679;-78
2023/07/05 02:20:17;;;;;;;1.52;1.30;;;;;;;27.54;35.98;100194.69;5047647;27;96823;-78
2023/07/05 02:22:43;;;;;;;1.85;1.60;;;;;;;27.54;35.52;100197.44;5031111;27;96851;-78
2023/07/05 02:25:10;;;;;;;2.78;1.70;;;;;;;27.54;35.62;100205.72;5048189;27;96814;-78
2023/07/05 02:27:37;;;;;;;1.70;1.40;;;;;;;27.54;35.86;100211.22;5032306;27;99217;-78
2023/07/05 02:30:09;;;;;;;1.88;1.60;;;;;;;27.53;35.71;100218.66;5047440;27;96900;-78
2023/07/05 02:32:36;;;;;;;2.72;1.70;;;;;;;27.53;35.95;100218.66;5045471;27;96983;-78
2023/07/05 02:35:03;;;;;;;1.77;1.50;;;;;;;27.52;35.73;100230.78;5045952;27;97273;-78
2023/07/05 02:37:33;;;;;;;1.73;1.60;;;;;;;27.54;35.71;100233.28;5044769;27;96742;-78
2023/07/05 02:40:00;;;;;;;2.25;1.50;;;;;;;27.53;35.90;100237.13;5050337;27;96801;-78
2023/07/05 02:42:29;;;;;;;2.10;1.50;;;;;;;27.54;35.62;100244.31;5045954;27;97670;-79
2023/07/05 02:44:55;;;;;;;1.75;1.30;;;;;;;27.53;35.68;100246.25;5042476;27;99765;-79
2023/07/05 02:47:23;;;;;;;1.73;1.52;;;;;;;27.53;35.75;100262.78;5046194;27;99889;-78
2023/07/05 02:49:49;;;;;;;1.50;1.30;;;;;;;27.54;35.91;100269.16;5041951;27;96803;-79
2023/07/05 02:52:16;;;;;;;1.95;1.50;;;;;;;27.53;35.77;100276.59;5023163;27;97006;-78
2023/07/05 02:54:43;;;;;;;1.65;1.33;;;;;;;27.52;35.69;100280.41;5051918;27;97977;-78
2023/07/05 02:57:09;;;;;;;1.92;1.40;;;;;;;27.53;35.78;100278.50;5034185;27;99795;-78
2023/07/05 02:59:36;;;;;;;1.73;1.30;;;;;;;27.52;35.68;100287.84;5036299;27;96726;-79
2023/07/05 03:02:03;;;;;;;1.55;1.30;;;;;;;27.52;35.72;100282.34;5033251;27;96917;-79
2023/07/05 03:04:30;;;;;;;2.88;1.58;;;;;;;27.52;35.72;100293.38;5054009;27;96809;-79
2023/07/05 03:06:57;;;;;;;1.63;1.45;;;;;;;27.52;35.89;100294.22;5035325;27;98984;-79
2023/07/05 03:09:24;;;;;;;1.80;1.55;;;;;;;27.52;35.61;100290.59;5052896;27;96604;-79
2023/07/05 03:11:50;;;;;;;2.40;1.48;;;;;;;27.52;35.83;100290.59;5051849;27;96677;-78
2023/07/05 03:14:17;;;;;;;1.75;1.30;;;;;;;27.52;35.85;100287.84;5052318;27;98215;-79
2023/07/05 03:16:43;;;;;;;1.88;1.20;;;;;;;27.51;35.73;100283.41;5049848;27;98924;-78
2023/07/05 03:19:11;;;;;;;3.83;1.60;;;;;;;27.51;35.87;100298.03;5053492;27;97157;-79
2023/07/05 03:21:41;;;;;;;2.63;1.52;;;;;;;27.51;35.82;100288.94;5051753;27;97309;-79
2023/07/05 03:24:07;;;;;;;1.88;1.15;;;;;;;27.51;35.85;100294.44;5051588;27;98841;-78
2023/07/05 03:26:34;;;;;;;2.33;1.40;;;;;;;27.51;35.76;100292.53;5051190;27;97651;-79
2023/07/05 03:29:04;;;;;;;1.25;1.10;;;;;;;27.52;35.81;100298.88;5051011;27;96754;-79
2023/07/05 03:31:31;;;;;;;1.85;1.40;;;;;;;27.51;35.57;100297.19;5051500;27;96717;-79
2023/07/05 03:33:57;;;;;;;1.60;1.50;;;;;;;27.51;35.85;100299.97;5050755;27;96824;-79
2023/07/05 03:36:24;;;;;;;1.58;1.20;;;;;;;27.51;35.81;100308.22;5047984;27;99005;-78
2023/07/05 03:38:51;;;;;;;1.85;1.30;;;;;;;27.50;35.82;100312.91;5053990;27;96842;-79
2023/07/05 03:41:20;;;;;;;1.67;1.23;;;;;;;27.51;35.82;100327.53;5050794;27;96804;-79
2023/07/05 03:43:51;;;;;;;1.30;1.17;;;;;;;27.50;35.79;100317.59;5053352;27;97115;-79
2023/07/05 03:46:18;;;;;;;1.33;1.00;;;;;;;27.51;35.72;100314.59;5052696;27;97913;-79
2023/07/05 03:48:45;;;;;;;2.05;1.20;;;;;;;27.50;35.90;100314.81;5050996;27;96619;-78
2023/07/05 03:51:14;;;;;;;1.20;1.10;;;;;;;27.50;35.97;100318.41;5052989;27;96830;-79
2023/07/05 03:53:41;;;;;;;1.73;1.30;;;;;;;27.49;35.86;100315.88;5052343;27;96726;-78
2023/07/05 03:56:09;;;;;;;1.70;1.15;;;;;;;27.50;35.81;100312.06;5053434;27;97297;-79
2023/07/05 03:58:37;;;;;;;1.50;1.33;;;;;;;27.50;35.75;100317.59;5034866;27;96674;-79
2023/07/05 04:01:07;;;;;;;1.77;1.40;;;;;;;27.49;35.82;100321.38;5051658;27;97192;-79
2023/07/05 04:03:34;;;;;;;1.75;1.40;;;;;;;27.48;35.85;100320.53;5050822;27;99571;-79
2023/07/05 04:06:04;;;;;;;1.40;1.13;;;;;;;27.49;35.91;100324.13;5048371;27;98332;-78
2023/07/05 04:08:30;;;;;;;1.20;1.10;;;;;;;27.48;35.96;100315.03;5047068;27;96723;-79
2023/07/05 04:10:57;;;;;;;1.98;1.20;;;;;;;27.48;35.77;100317.78;5052295;27;97527;-79
2023/07/05 04:13:24;;;;;;;1.80;1.25;;;;;;;27.48;35.94;100326.06;5032495;27;98562;-79
2023/07/05 04:16:02;;;;;;;1.73;1.20;;;;;;;27.49;35.93;100313.94;5051953;27;97738;-79
2023/07/05 04:18:30;;;;;;;1.40;1.13;;;;;;;27.47;36.09;100310.59;5050799;27;96815;-79
2023/07/05 04:20:58;;;;;;;1.33;1.23;;;;;;;27.47;35.87;100313.34;5053203;27;96698;-79
2023/07/05 04:23:25;;;;;;;1.65;0.98;;;;;;;27.47;35.96;100309.75;5049640;27;98293;-79
2023/07/05 04:26:05;;;;;;;1.35;1.08;;;;;;;27.47;35.97;100321.63;5032611;27;99027;-79
2023/07/05 04:28:33;;;;;;;1.90;1.17;;;;;;;27.46;35.94;100313.56;5049473;27;96818;-79
2023/07/05 04:31:00;;;;;;;1.55;1.27;;;;;;;27.46;35.84;100313.56;5049436;27;96627;-78
2023/07/05 04:33:27;;;;;;;1.80;1.30;;;;;;;27.46;35.99;100319.09;5049511;27;97793;-79
2023/07/05 04:35:56;;;;;;;1.10;1.00;;;;;;;27.46;35.98;100319.09;5046796;27;99140;-79
2023/07/05 04:38:23;;;;;;;1.30;1.00;;;;;;;27.46;35.60;100322.69;5041183;27;99764;-79
2023/07/05 04:40:50;;;;;;;1.20;1.00;;;;;;;27.46;35.80;100319.09;5048457;27;97046;-79
2023/07/05 04:43:17;;;;;;;1.40;1.05;;;;;;;27.45;35.84;100321.00;5046854;27;99729;-79
2023/07/05 04:45:51;;;;;;;2.00;1.38;;;;;;;27.46;36.03;100319.09;5030559;27;97201;-79
2023/07/05 04:48:18;;;;;;;1.50;1.20;;;;;;;27.44;35.86;100324.84;5031445;27;96661;-78
2023/07/05 04:50:50;;;;;;;2.08;1.00;;;;;;;27.46;35.87;100324.59;5032135;27;96937;-78
2023/07/05 04:53:17;;;;;;;1.73;1.20;;;;;;;27.45;36.03;100332.03;5013651;28;98924;-79
2023/07/05 04:55:47;;;;;;;1.88;1.20;;;;;;;27.45;35.72;100320.16;5050226;27;96943;-79
2023/07/05 04:58:15;;;;;;;1.67;1.00;;;;;;;27.45;35.87;100331.19;5052389;27;97038;-79
2023/07/05 05:00:46;;;;;;;1.67;1.23;;;;;;;27.44;36.05;100315.72;5047333;27;96773;-79
2023/07/05 05:03:13;;;;;;;1.85;1.30;;;;;;;27.45;35.84;100322.91;5030712;27;96771;-79
2023/07/05 05:05:52;;;;;;;1.27;0.88;;;;;;;27.45;35.80;100315.50;5044092;27;98473;-78
2023/07/05 05:08:19;;;;;;;1.35;1.08;;;;;;;27.44;35.99;100308.28;5031244;27;97005;-79
2023/07/05 05:10:55;;;;;;;1.33;1.10;;;;;;;27.44;35.89;100297.25;5063363;27;96827;-79
2023/07/05 05:13:22;;;;;;;1.33;1.13;;;;;;;27.43;35.96;100298.34;5044363;27;98032;-79
2023/07/05 05:15:50;;;;;;;1.65;1.15;;;;;;;27.44;35.99;100305.53;5050198;27;96955;-79
2023/07/05 05:18:17;;;;;;;1.25;1.05;;;;;;;27.44;36.00;100291.75;5045725;27;98797;-79
2023/07/05 05:20:44;;;;;;;1.50;1.10;;;;;;;27.44;35.98;100297.25;5036518;27;97178;-79
2023/07/05 05:23:11;;;;;;;1.70;1.30;;;;;;;27.43;35.89;100295.56;5040143;27;99539;-79
2023/07/05 05:25:42;;;;;;;1.48;1.02;;;;;;;27.43;35.98;100300.25;5045700;27;96724;-79
2023/07/05 05:28:09;;;;;;;1.55;1.20;;;;;;;27.43;36.04;100300.25;5036455;27;97365;-79
2023/07/05 05:30:36;;;;;;;1.35;1.20;;;;;;;27.44;35.98;100310.22;5034475;27;96631;-79
2023/07/05 05:33:03;;;;;;;1.55;1.30;;;;;;;27.43;35.78;100305.75;5036258;27;97652;-79
2023/07/05 05:35:31;;;;;;;1.23;0.90;;;;;;;27.44;36.11;100307.44;5034369;27;96702;-79
2023/07/05 05:37:58;;;;;;;1.63;1.08;;;;;;;27.43;36.02;100316.78;5033895;27;97485;-79
2023/07/05 05:40:25;;;;;;;1.05;0.95;;;;;;;27.43;35.75;100311.28;5051330;27;97308;-79
2023/07/05 05:42:52;;;;;;;1.20;1.10;;;;;;;27.43;36.00;100312.13;5048398;27;97906;-79
2023/07/05 05:45:19;;;;;;;1.30;1.15;;;;;;;27.43;36.10;100312.13;5031094;27;97136;-79
2023/07/05 05:47:45;;;;;;;1.30;0.90;;;;;;;27.43;36.05;100308.53;5036703;27;97499;-79
2023/07/05 05:50:12;;;;;;;1.50;1.00;;;;;;;27.42;36.06;100302.16;5045863;27;97201;-79
2023/07/05 05:52:39;;;;;;;1.40;1.17;;;;;;;27.43;35.79;100325.06;5046678;27;97364;-79
2023/07/05 05:55:06;;;;;;;1.30;1.13;;;;;;;27.42;35.91;100304.91;5042331;27;96880;-79
2023/07/05 05:57:33;;;;;;;1.38;1.10;;;;;;;27.42;35.88;100310.44;5045923;27;97524;-78
2023/07/05 05:59:59;;;;;;;1.90;1.25;;;;;;;27.41;35.95;100314.28;5020925;27;98448;-78
2023/07/05 06:02:26;;;;;;;1.20;1.10;;;;;;;27.42;35.79;100321.47;5042430;27;96769;-82
2023/07/05 06:04:53;;;;;;;1.15;0.80;;;;;;;27.43;35.78;100322.31;5046896;27;98176;-78
2023/07/05 06:07:19;;;;;;;1.33;1.13;;;;;;;27.41;35.79;100325.31;5046315;27;97148;-78
2023/07/05 06:09:47;;;;;;;1.40;1.08;;;;;;;27.41;35.79;100322.53;5044024;27;96759;-79
2023/07/05 06:12:15;;;;;;;1.27;0.98;;;;;;;27.42;35.77;100320.63;5028495;27;99924;-78
2023/07/05 06:14:42;;;;;;;1.20;1.10;;;;;;;27.41;35.85;100343.75;5044485;27;98219;-79
2023/07/05 06:17:09;;;;;;;1.33;0.98;;;;;;;27.41;36.05;100333.56;5043503;27;97488;-78
2023/07/05 06:19:36;;;;;;;1.30;1.15;;;;;;;27.42;35.90;100342.69;5043553;27;96873;-78
2023/07/05 06:22:02;;;;;;;1.52;1.20;;;;;;;27.41;35.73;100338.25;5049891;27;98614;-78
2023/07/05 06:24:31;;;;;;;1.00;0.88;;;;;;;27.40;35.86;100342.91;5050218;27;98137;-78
2023/07/05 06:27:00;;;;;;;1.15;0.90;;;;;;;27.41;36.03;100338.25;5051614;27;97038;-79
2023/07/05 06:29:26;;;;;;;1.50;1.17;;;;;;;27.40;35.77;100362.22;5052295;27;97030;-79
2023/07/05 06:31:53;;;;;;;1.42;1.20;;;;;;;27.41;35.94;100346.53;5066336;27;97861;-78
2023/07/05 06:34:20;;;;;;;1.55;1.27;;;;;;;27.40;35.95;100345.69;5050026;27;97842;-78
2023/07/05 06:36:47;;;;;;;1.67;1.10;;;;;;;27.40;35.55;100345.69;5047913;27;96983;-79
2023/07/05 06:39:14;;;;;;;1.40;1.02;;;;;;;27.40;35.95;100356.72;5051226;27;96984;-79
2023/07/05 06:41:40;;;;;;;1.65;1.10;;;;;;;27.40;35.73;100355.88;5045467;27;97016;-79
2023/07/05 06:44:07;;;;;;;1.80;1.13;;;;;;;27.40;35.85;100358.63;5026638;27;100939;-79
2023/07/05 06:46:33;;;;;;;1.15;0.77;;;;;;;27.40;35.92;100362.22;5053603;27;96839;-79
2023/07/05 06:49:00;;;;;;;1.52;1.10;;;;;;;27.40;35.76;100370.50;5045394;27;96897;-79
2023/07/05 06:51:27;;;;;;;1.20;0.95;;;;;;;27.40;36.09;100378.78;5047804;27;97068;-78
2023/07/05 06:53:53;;;;;;;1.13;0.95;;;;;;;27.40;35.67;100364.97;5045196;27;97447;-79
2023/07/05 06:56:20;;;;;;;0.95;0.85;;;;;;;27.40;35.92;100369.66;5051429;27;96924;-79
2023/07/05 06:58:47;;;;;;;1.20;1.10;;;;;;;27.40;35.91;100373.25;5041767;27;97153;-79
2023/07/05 07:01:13;;;;;;;1.10;0.95;;;;;;;27.40;35.91;100361.38;5052103;27;98831;-78
2023/07/05 07:03:40;;;;;;;1.85;1.10;;;;;;;27.41;35.97;100368.59;5046447;27;96810;-79
2023/07/05 07:06:08;;;;;;;1.50;1.30;;;;;;;27.40;35.95;100392.56;5051261;27;97116;-78
2023/07/05 07:08:37;;;;;;;1.00;0.90;;;;;;;27.39;35.74;100385.38;5051252;27;98035;-79
2023/07/05 07:11:05;;;;;;;1.17;1.08;;;;;;;27.40;36.07;100383.44;5049554;27;97781;-79
2023/07/05 07:13:33;;;;;;;1.27;0.90;;;;;;;27.40;35.79;100377.94;5051511;27;97337;-79
2023/07/05 07:16:06;;;;;;;1.27;1.00;;;;;;;27.41;35.77;100409.94;5034240;27;96829;-78
2023/07/05 07:18:36;;;;;;;1.20;0.88;;;;;;;27.40;35.89;100414.63;5045602;27;96949;-79
2023/07/05 07:21:06;;;;;;;2.20;1.40;;;;;;;27.41;35.85;100396.16;5036139;27;98150;-78
2023/07/05 07:23:32;;;;;;;1.50;1.10;;;;;;;27.40;35.86;100411.88;5049924;27;100108;-78
2023/07/05 07:26:01;;;;;;;1.73;1.30;;;;;;;27.41;35.95;100398.91;5055761;27;97377;-79
2023/07/05 07:28:28;;;;;;;2.25;1.20;;;;;;;27.41;35.68;100416.31;5042375;27;96819;-78
2023/07/05 07:30:55;;;;;;;1.67;1.10;;;;;;;27.41;35.91;100426.50;5047157;27;97560;-79
2023/07/05 07:33:22;;;;;;;2.08;1.20;;;;;;;27.41;35.80;100418.22;5024343;27;97590;-79
2023/07/05 07:35:48;;;;;;;2.08;0.82;;;;;;;27.41;35.54;100435.63;5046714;27;96663;-78
2023/07/05 07:38:16;;;;;;;1.30;1.05;;;;;;;27.42;35.60;100433.69;5043403;27;96763;-77
2023/07/05 07:40:43;;;;;;;1.27;0.95;;;;;;;27.41;35.83;100449.41;5042070;27;96802;-77
2023/07/05 07:43:10;;;;;;;1.45;1.10;;;;;;;27.41;35.85;100451.31;5044631;27;96869;-78
2023/07/05 07:45:36;;;;;;;1.35;0.98;;;;;;;27.41;35.82;100456.84;5047730;27;96684;-78
2023/07/05 07:48:03;;;;;;;1.55;1.10;;;;;;;27.42;35.84;100450.25;5037567;27;96809;-79
2023/07/05 07:50:31;;;;;;;2.20;1.25;;;;;;;27.41;35.82;100456.84;5045092;27;96932;-79
2023/07/05 07:52:58;;;;;;;1.83;1.10;;;;;;;27.41;35.83;100474.22;5047086;27;96823;-78
2023/07/05 07:55:24;;;;;;;1.80;1.20;;;;;;;27.42;36.04;100481.44;5038329;27;98099;-78
2023/07/05 07:57:51;;;;;;;2.70;1.10;;;;;;;27.42;35.83;100499.88;5041748;27;96847;-78
2023/07/05 08:00:18;;;;;;;1.88;1.20;;;;;;;27.41;35.94;100499.03;5043174;27;96845;-78
2023/07/05 08:02:45;;;;;;;1.60;1.20;;;;;;;27.41;35.94;100479.75;5047212;27;97549;-78
2023/07/05 08:05:16;;;;;;;1.90;1.20;;;;;;;27.43;35.60;100488.63;5048934;27;96518;-78
2023/07/05 08:07:43;;;;;;;1.77;1.30;;;;;;;27.41;35.82;100501.81;5055486;27;96811;-75
2023/07/05 08:10:09;;;;;;;1.35;1.00;;;;;;;27.41;35.76;100504.56;5039155;27;97675;-75
2023/07/05 08:12:36;;;;;;;1.15;0.88;;;;;;;27.42;35.94;100502.66;5042799;27;96839;-76
2023/07/05 08:15:03;;;;;;;1.40;1.05;;;;;;;27.42;35.83;100499.88;5042777;27;96900;-75
2023/07/05 08:17:30;;;;;;;1.58;1.20;;;;;;;27.41;35.91;100499.03;5040291;27;96799;-76
2023/07/05 08:19:57;;;;;;;1.67;1.02;;;;;;;27.41;35.99;100514.75;5046625;27;97267;-76
2023/07/05 08:22:24;;;;;;;1.95;1.20;;;;;;;27.40;35.84;100489.09;5042494;27;97548;-75
2023/07/05 08:24:51;;;;;;;1.77;1.10;;;;;;;27.41;36.00;100509.22;5041927;27;97728;-75
2023/07/05 08:27:18;;;;;;;2.70;1.10;;;;;;;27.41;35.73;100531.31;5047112;27;96801;-75
2023/07/05 08:29:45;;;;;;;1.58;1.10;;;;;;;27.42;35.78;100530.22;5043124;27;97724;-75
2023/07/05 08:32:11;;;;;;;1.40;1.20;;;;;;;27.41;35.95;100529.38;5044588;27;97218;-75
2023/07/05 08:34:38;;;;;;;2.20;1.20;;;;;;;27.41;35.54;100534.06;5038775;27;96752;-75
2023/07/05 08:37:05;;;;;;;2.40;1.10;;;;;;;27.41;35.96;100534.91;5041083;27;96831;-75
2023/07/05 08:39:31;;;;;;;1.77;1.10;;;;;;;27.41;35.88;100529.38;5037113;27;97786;-75
2023/07/05 08:42:15;;;;;;;2.33;1.00;;;;;;;27.41;35.89;100540.41;5043653;27;98519;-76
2023/07/05 08:45:08;;;;;;;1.77;1.15;;;;;;;27.41;35.79;100534.06;5044106;27;96689;-75
2023/07/05 08:47:44;;;;;;;1.65;1.23;;;;;;;27.40;35.83;100535.13;5049144;27;96695;-76
2023/07/05 08:50:31;;;;;;;1.80;1.20;;;;;;;27.39;35.91;100534.28;5033555;27;97243;-76
2023/07/05 08:53:12;;;;;;;1.88;1.20;;;;;;;27.39;35.89;100558.25;5048769;27;96773;-76
2023/07/05 08:55:51;;;;;;;3.03;1.10;;;;;;;27.40;35.71;100554.44;5048803;27;96613;-75
2023/07/05 08:58:38;;;;;;;2.25;1.40;;;;;;;27.39;35.69;100572.06;5039703;27;96531;-75
2023/07/05 09:01:15;;;;;;;1.48;1.10;;;;;;;27.39;35.82;100563.78;5041509;27;96740;-76
2023/07/05 09:03:43;;;;;;;1.75;1.17;;;;;;;27.38;35.74;100593.28;5028986;27;97125;-76
2023/07/05 09:06:24;;;;;;;2.35;1.20;;;;;;;27.39;35.66;100564.63;5037174;27;96757;-75
2023/07/05 09:09:12;;;;;;;4.30;1.27;;;;;;;27.39;35.69;100577.56;5034830;27;96819;-75
2023/07/05 09:11:47;;;;;;;2.60;1.15;;;;;;;27.37;35.73;100582.47;5028440;27;98619;-76
2023/07/05 09:14:28;;;;;;;2.55;1.25;;;;;;;27.38;35.88;100593.28;5031904;27;98579;-76
2023/07/05 09:16:57;;;;;;;2.53;1.40;;;;;;;27.37;35.81;100591.59;5045258;27;96881;-76
2023/07/05 09:19:43;;;;;;;1.88;1.08;;;;;;;27.39;35.84;100596.88;5042451;27;97025;-76
2023/07/05 09:22:14;;;;;;;1.60;1.17;;;;;;;27.38;35.69;100606.22;5040539;27;96806;-76
2023/07/05 09:24:41;;;;;;;1.52;1.10;;;;;;;27.38;35.71;100592.44;5037919;27;96837;-76
2023/07/05 09:27:17;;;;;;;1.95;1.00;;;;;;;27.40;35.71;100606.84;5040815;27;97117;-76
2023/07/05 09:29:54;;;;;;;2.67;1.40;;;;;;;27.39;35.68;100602.38;5040041;27;97144;-76
2023/07/05 09:32:34;;;;;;;1.70;1.10;;;;;;;27.39;35.78;100608.75;5038997;27;99447;-76
2023/07/05 09:35:01;;;;;;;3.50;1.42;;;;;;;27.39;35.62;100616.19;5046144;27;96728;-76
2023/07/05 09:37:36;;;;;;;2.03;1.05;;;;;;;27.40;35.79;100620.63;5038621;27;96643;-76
2023/07/05 09:40:22;;;;;;;1.80;1.02;;;;;;;27.38;35.69;100618.09;5034677;27;97472;-76
2023/07/05 09:43:00;;;;;;;1.75;1.10;;;;;;;27.38;35.68;100636.56;5041901;27;96770;-76
2023/07/05 09:45:27;;;;;;;2.25;1.20;;;;;;;27.37;35.78;100652.25;5044769;27;98179;-76
2023/07/05 09:48:02;;;;;;;2.83;1.38;;;;;;;27.38;36.14;100639.31;5035120;27;97346;-76
2023/07/05 09:50:30;;;;;;;2.40;1.25;;;;;;;27.38;35.67;100650.34;5039427;27;97357;-76
2023/07/05 09:53:09;;;;;;;3.28;1.10;;;;;;;27.39;35.80;100668.56;5043495;27;99435;-76
2023/07/05 09:56:03;;;;;;;1.65;1.10;;;;;;;27.40;35.79;100670.25;5032200;27;98518;-76
2023/07/05 09:58:33;;;;;;;2.38;1.20;;;;;;;27.37;35.58;100670.72;5034507;27;96868;-76
2023/07/05 10:01:04;;;;;;;1.77;1.30;;;;;;;27.38;35.94;100678.75;5040393;27;97493;-76
2023/07/05 10:03:36;;;;;;;1.90;0.95;;;;;;;27.40;35.72;100681.28;5035028;27;96911;-76
2023/07/05 10:06:08;;;;;;;2.38;1.15;;;;;;;27.39;35.82;100693.41;5013912;27;97212;-76
2023/07/05 10:08:44;;;;;;;2.58;1.10;;;;;;;27.39;35.82;100688.72;5042325;27;96849;-75
2023/07/05 10:11:24;;;;;;;2.25;1.40;;;;;;;27.40;35.68;100697.84;5040834;27;96774;-76
2023/07/05 10:14:12;;;;;;;3.33;1.08;;;;;;;27.40;35.51;100706.13;5036221;27;96831;-76
2023/07/05 10:16:59;;;;;;;2.60;1.17;;;;;;;27.39;35.62;100704.44;5036501;27;97457;-76
2023/07/05 10:19:28;;;;;;;1.85;1.05;;;;;;;27.38;35.80;100705.50;5038645;27;96896;-76
2023/07/05 10:22:32;;;;;;;3.42;1.40;;;;;;;27.38;35.73;100697.22;5038654;27;98337;-76
2023/07/05 10:25:05;;;;;;;2.00;1.10;;;;;;;27.37;35.89;100696.38;5025435;27;97205;-76
2023/07/05 10:27:40;;;;;;;3.40;1.20;;;;;;;27.38;35.88;100722.03;5035577;27;97627;-76
2023/07/05 10:30:15;;;;;;;1.42;1.08;;;;;;;27.38;35.83;100713.78;5045171;27;96884;-76
2023/07/05 10:32:50;;;;;;;1.88;1.10;;;;;;;27.38;35.86;100720.13;5043336;27;96707;-76
2023/07/05 10:35:28;;;;;;;1.75;1.02;;;;;;;27.39;35.72;100729.25;5044244;27;97276;-76
2023/07/05 10:37:56;;;;;;;1.67;1.05;;;;;;;27.39;35.74;100748.56;5045539;27;96622;-77
2023/07/05 10:40:23;;;;;;;3.20;1.17;;;;;;;27.39;35.69;100757.69;5045992;27;97364;-76
2023/07/05 10:42:53;;;;;;;3.47;1.23;;;;;;;27.40;35.68;100750.25;5032003;27;96862;-76
2023/07/05 10:45:22;;;;;;;2.83;1.52;;;;;;;27.40;35.83;100764.03;5015830;27;99734;-76
2023/07/05 10:47:53;;;;;;;3.67;1.27;;;;;;;27.39;35.88;100760.44;5046503;27;96726;-76
2023/07/05 10:50:29;;;;;;;2.92;1.10;;;;;;;27.41;35.88;100765.72;5047712;27;96673;-76
2023/07/05 10:53:01;;;;;;;2.28;1.10;;;;;;;27.40;35.73;100770.41;5047315;27;96959;-76
2023/07/05 10:56:09;;;;;;;1.58;0.80;;;;;;;27.41;35.72;100760.22;5046093;27;96993;-76
2023/07/05 10:58:53;;;;;;;2.47;1.27;;;;;;;27.39;35.86;100771.47;5045399;27;100810;-76
2023/07/05 11:01:26;;;;;;;1.63;1.10;;;;;;;27.40;35.77;100775.06;5038575;27;97047;-76
2023/07/05 11:04:18;;;;;;;2.43;1.10;;;;;;;27.40;35.79;100786.09;5042140;27;96860;-76
2023/07/05 11:06:48;;;;;;;2.22;1.10;;;;;;;27.39;35.63;100779.75;5034698;27;97505;-76
2023/07/05 11:09:17;;;;;;;2.80;1.30;;;;;;;27.39;35.72;100781.66;5040686;27;97210;-76
2023/07/05 11:11:50;;;;;;;3.03;1.08;;;;;;;27.39;35.89;100788.00;5034215;27;97719;-76
2023/07/05 11:14:17;;;;;;;2.95;1.10;;;;;;;27.40;35.79;100777.81;5041930;27;97371;-76
2023/07/05 11:16:46;;;;;;;2.75;1.10;;;;;;;27.40;35.84;100778.69;5050708;27;97279;-76
2023/07/05 11:19:17;;;;;;;2.83;1.00;;;;;;;27.41;35.84;100798.81;5050622;27;96774;-76
2023/07/05 11:21:49;;;;;;;3.80;1.00;;;;;;;27.41;35.67;100799.66;5045862;27;96909;-76
2023/07/05 11:24:24;;;;;;;1.40;0.82;;;;;;;27.42;35.87;100814.31;5041773;27;96698;-76
2023/07/05 11:26:51;;;;;;;2.42;1.05;;;;;;;27.40;35.85;100816.44;5035243;27;97856;-76
2023/07/05 11:29:26;;;;;;;2.30;1.05;;;;;;;27.42;35.71;100825.34;5050626;27;96731;-76
2023/07/05 11:32:01;;;;;;;2.90;1.10;;;;;;;27.41;35.82;100809.84;5037997;27;97161;-79
2023/07/05 11:34:27;;;;;;;1.98;1.13;;;;;;;27.41;35.91;100831.94;5017035;27;96891;-76
2023/07/05 11:37:14;;;;;;;1.80;1.17;;;;;;;27.41;35.77;100838.28;5034374;27;98402;-76
2023/07/05 11:39:48;;;;;;;3.05;1.02;;;;;;;27.40;35.91;100833.84;5013999;28;97055;-76